Time;durP1;ratioP1;P1;durP2;ratioP2;P2;SDS_P1;SDS_P2;PMS_P1;PMS_P2;Temp;Humidity;BMP_temperature;BMP_pressure;BME280_temperature;BME280_humidity;BME280_pressure;Samples;Min_cycle;Max_cycle;Signal;HPM_P1;HPM_P2
2021/11/06 00:00:43;;;;;;;16.52;11.35;;;;;;;4.12;nan;101814.19;5036646;28;20548;-75
2021/11/06 00:03:09;;;;;;;19.40;12.85;;;;;;;4.11;nan;101815.97;5038196;28;20406;-75
2021/11/06 00:05:34;;;;;;;19.58;12.75;;;;;;;4.09;nan;101812.59;5035852;28;20025;-75
2021/11/06 00:08:00;;;;;;;23.33;12.80;;;;;;;4.15;nan;101809.66;5052298;28;20040;-75
2021/11/06 00:10:25;;;;;;;21.23;13.02;;;;;;;4.24;nan;101810.94;5047733;28;20033;-75
2021/11/06 00:12:52;;;;;;;21.45;13.30;;;;;;;4.33;nan;101807.84;5050225;28;20033;-75
2021/11/06 00:15:18;;;;;;;18.58;11.18;;;;;;;4.39;nan;101817.19;5052254;28;20155;-75
2021/11/06 00:17:44;;;;;;;18.65;11.88;;;;;;;4.42;nan;101815.22;5037480;28;20515;-75
2021/11/06 00:20:11;;;;;;;16.85;10.52;;;;;;;4.43;nan;101814.31;5040804;28;20041;-75
2021/11/06 00:22:36;;;;;;;17.55;10.90;;;;;;;4.46;nan;101816.78;5046129;28;20523;-75
2021/11/06 00:25:04;;;;;;;19.42;11.35;;;;;;;4.52;nan;101814.75;5051223;28;20029;-75
2021/11/06 00:27:29;;;;;;;18.02;11.00;;;;;;;4.47;nan;101813.22;5051207;28;20044;-75
2021/11/06 00:29:55;;;;;;;19.02;11.35;;;;;;;4.52;nan;101815.59;5051264;28;20041;-75
2021/11/06 00:32:21;;;;;;;19.90;12.93;;;;;;;4.44;nan;101802.91;5049108;28;20187;-75
2021/11/06 00:34:47;;;;;;;18.52;11.48;;;;;;;4.41;nan;101804.81;5050959;28;20045;-75
2021/11/06 00:37:12;;;;;;;17.10;10.88;;;;;;;4.41;nan;101808.31;5050449;28;20059;-75
2021/11/06 00:39:38;;;;;;;17.58;10.85;;;;;;;4.44;nan;101813.38;5051233;28;20044;-75
2021/11/06 00:42:03;;;;;;;18.50;10.75;;;;;;;4.44;nan;101810.75;5051503;28;20120;-75
2021/11/06 00:44:28;;;;;;;16.85;10.60;;;;;;;4.40;nan;101809.22;5048954;28;20041;-75
2021/11/06 00:46:54;;;;;;;21.33;12.02;;;;;;;4.45;nan;101809.81;5050477;28;20501;-75
2021/11/06 00:49:19;;;;;;;18.42;11.35;;;;;;;4.42;nan;101812.59;5051279;28;20043;-75
2021/11/06 00:51:44;;;;;;;17.60;11.38;;;;;;;4.40;nan;101808.38;5051335;28;20095;-75
2021/11/06 00:54:10;;;;;;;18.25;11.38;;;;;;;4.32;nan;101807.94;5050462;28;20036;-75
2021/11/06 00:56:35;;;;;;;20.13;11.40;;;;;;;4.24;nan;101803.09;5049900;28;20029;-75
2021/11/06 00:59:00;;;;;;;18.45;11.43;;;;;;;4.19;nan;101802.47;5051160;28;20120;-75
2021/11/06 01:01:26;;;;;;;16.75;11.70;;;;;;;4.13;nan;101811.50;5047689;28;20041;-75
2021/11/06 01:03:51;;;;;;;14.60;10.93;;;;;;;4.11;nan;101807.28;5040849;28;20500;-76
2021/11/06 01:06:17;;;;;;;12.18;9.27;;;;;;;4.10;nan;101813.41;5047494;28;20440;-76
2021/11/06 01:08:43;;;;;;;15.73;10.20;;;;;;;4.13;nan;101810.66;5050988;28;20037;-75
2021/11/06 01:11:09;;;;;;;16.65;10.30;;;;;;;4.21;nan;101808.50;5049009;28;20033;-75
2021/11/06 01:13:35;;;;;;;20.83;11.60;;;;;;;4.19;nan;101807.72;5049973;28;20045;-75
2021/11/06 01:16:01;;;;;;;19.15;11.00;;;;;;;4.12;nan;101814.19;5050299;28;20041;-76
2021/11/06 01:18:26;;;;;;;15.75;10.27;;;;;;;4.06;nan;101819.75;5049981;28;20040;-76
2021/11/06 01:20:51;;;;;;;18.08;11.18;;;;;;;4.00;nan;101815.66;5050349;28;20116;-76
2021/11/06 01:23:16;;;;;;;17.52;11.30;;;;;;;4.03;nan;101815.53;5040154;28;20033;-76
2021/11/06 01:25:42;;;;;;;15.77;9.60;;;;;;;4.09;nan;101806.50;5038357;28;20085;-75
2021/11/06 01:28:07;;;;;;;17.98;11.07;;;;;;;4.06;nan;101804.91;5046031;28;20061;-76
2021/11/06 01:30:32;;;;;;;16.38;10.27;;;;;;;4.02;nan;101804.19;5049211;28;20044;-76
2021/11/06 01:32:58;;;;;;;17.92;11.23;;;;;;;4.01;nan;101801.66;5047884;28;20041;-76
2021/11/06 01:35:23;;;;;;;17.83;10.95;;;;;;;3.93;nan;101806.44;5048396;28;20498;-76
2021/11/06 01:37:49;;;;;;;17.63;11.18;;;;;;;3.89;nan;101812.75;5048387;28;20091;-75
2021/11/06 01:40:17;;;;;;;16.83;10.38;;;;;;;3.91;nan;101811.75;5050201;28;20039;-76
2021/11/06 01:42:44;;;;;;;16.92;10.50;;;;;;;3.90;nan;101807.44;5049757;28;20033;-76
2021/11/06 01:45:13;;;;;;;19.33;11.52;;;;;;;3.90;nan;101820.50;5049248;28;20037;-76
2021/11/06 01:47:38;;;;;;;21.00;11.95;;;;;;;3.92;nan;101812.59;5049594;28;20029;-76
2021/11/06 01:50:05;;;;;;;18.50;11.10;;;;;;;3.96;nan;101814.97;5047371;28;20047;-76
2021/11/06 01:52:31;;;;;;;17.30;10.68;;;;;;;4.05;nan;101811.03;5049886;28;20389;-76
2021/11/06 01:54:57;;;;;;;15.65;10.43;;;;;;;4.09;nan;101806.50;5051133;28;20036;-76
2021/11/06 01:57:23;;;;;;;19.85;11.70;;;;;;;4.07;nan;101809.19;5050840;28;20044;-76
2021/11/06 01:59:48;;;;;;;19.25;11.80;;;;;;;4.06;nan;101801.44;5049871;28;20040;-76
2021/11/06 02:02:15;;;;;;;18.23;11.75;;;;;;;4.04;nan;101804.97;5049116;28;20033;-76
2021/11/06 02:04:41;;;;;;;19.48;11.73;;;;;;;4.03;nan;101807.69;5050936;28;20392;-76
2021/11/06 02:07:06;;;;;;;17.60;11.45;;;;;;;4.03;nan;101803.28;5037913;28;20017;-75
2021/11/06 02:09:32;;;;;;;21.02;12.10;;;;;;;4.04;nan;101807.56;5051661;28;20444;-76
2021/11/06 02:11:58;;;;;;;16.58;10.77;;;;;;;4.07;nan;101805.72;5048834;28;20025;-76
2021/11/06 02:14:24;;;;;;;17.23;11.13;;;;;;;4.04;nan;101804.97;5037932;28;20129;-75
2021/11/06 02:16:51;;;;;;;19.83;11.27;;;;;;;4.05;nan;101800.56;5049168;28;20036;-76
2021/11/06 02:19:18;;;;;;;18.00;11.10;;;;;;;4.03;nan;101805.91;5049422;28;20032;-76
2021/11/06 02:21:45;;;;;;;18.50;10.65;;;;;;;4.12;nan;101804.56;5047876;28;20443;-76
2021/11/06 02:24:10;;;;;;;20.48;11.93;;;;;;;4.17;nan;101802.56;5046115;28;20107;-76
2021/11/06 02:26:35;;;;;;;18.05;10.68;;;;;;;4.10;nan;101798.59;5042661;28;20468;-76
2021/11/06 02:29:03;;;;;;;18.08;11.23;;;;;;;4.08;nan;101803.03;5036396;28;20099;-76
2021/11/06 02:31:28;;;;;;;17.90;10.90;;;;;;;4.03;nan;101811.13;5041465;28;20037;-76
2021/11/06 02:33:54;;;;;;;18.27;10.82;;;;;;;4.01;nan;101810.34;5046318;28;20486;-76
2021/11/06 02:36:20;;;;;;;18.77;11.13;;;;;;;3.95;nan;101808.03;5044753;28;20037;-76
2021/11/06 02:38:45;;;;;;;17.77;10.77;;;;;;;3.95;nan;101810.66;5045867;28;20041;-76
2021/11/06 02:41:11;;;;;;;16.15;10.48;;;;;;;3.99;nan;101808.75;5043824;28;20114;-76
2021/11/06 02:43:36;;;;;;;16.63;9.88;;;;;;;3.99;nan;101806.97;5048008;28;20111;-76
2021/11/06 02:46:02;;;;;;;15.82;9.95;;;;;;;3.98;nan;101807.03;5047104;28;20040;-76
2021/11/06 02:48:27;;;;;;;16.83;10.48;;;;;;;3.97;nan;101805.34;5036011;28;20128;-76
2021/11/06 02:50:53;;;;;;;16.83;10.32;;;;;;;3.91;nan;101810.88;5043601;28;20045;-76
2021/11/06 02:53:18;;;;;;;19.42;11.38;;;;;;;3.83;nan;101814.72;5048928;28;20029;-76
2021/11/06 02:55:44;;;;;;;17.83;11.32;;;;;;;3.79;nan;101807.97;5048324;28;20118;-76
2021/11/06 02:58:10;;;;;;;18.52;10.65;;;;;;;3.79;nan;101807.97;5040747;28;20453;-76
2021/11/06 03:00:36;;;;;;;19.75;11.50;;;;;;;3.86;nan;101812.88;5048723;28;20064;-76
2021/11/06 03:03:02;;;;;;;16.67;10.02;;;;;;;3.81;nan;101806.13;5048523;28;20102;-76
2021/11/06 03:05:27;;;;;;;15.40;9.98;;;;;;;3.81;nan;101807.88;5048043;28;20068;-76
2021/11/06 03:07:53;;;;;;;17.75;10.77;;;;;;;3.81;nan;101805.28;5047043;28;20104;-76
2021/11/06 03:10:19;;;;;;;18.85;11.60;;;;;;;3.75;nan;101808.22;5044502;28;20051;-75
2021/11/06 03:12:47;;;;;;;18.15;11.48;;;;;;;3.70;nan;101815.44;5044015;28;20029;-76
2021/11/06 03:15:12;;;;;;;18.02;10.90;;;;;;;3.69;nan;101806.72;5042399;28;20057;-76
2021/11/06 03:17:38;;;;;;;16.85;9.68;;;;;;;3.77;nan;101814.22;5048981;28;20057;-76
2021/11/06 03:20:05;;;;;;;17.73;10.52;;;;;;;3.77;nan;101808.97;5047156;28;20044;-76
2021/11/06 03:22:31;;;;;;;13.93;9.13;;;;;;;3.76;nan;101808.13;5048279;28;20044;-76
2021/11/06 03:24:56;;;;;;;14.40;8.90;;;;;;;3.76;nan;101802.03;5047199;28;20037;-76
2021/11/06 03:27:22;;;;;;;16.02;10.02;;;;;;;3.71;nan;101801.44;5048544;28;20044;-76
2021/11/06 03:29:47;;;;;;;16.88;10.63;;;;;;;3.61;nan;101809.72;5048512;28;20362;-76
2021/11/06 03:32:13;;;;;;;16.77;10.10;;;;;;;3.55;nan;101811.78;5047771;28;20497;-76
2021/11/06 03:34:38;;;;;;;16.20;10.50;;;;;;;3.51;nan;101810.25;5046591;28;20043;-76
2021/11/06 03:37:04;;;;;;;17.25;10.93;;;;;;;3.48;nan;101807.78;5045732;28;20496;-76
2021/11/06 03:39:30;;;;;;;15.43;9.88;;;;;;;3.47;nan;101806.09;5047373;28;20029;-76
2021/11/06 03:41:55;;;;;;;15.55;10.18;;;;;;;3.48;nan;101808.66;5048431;28;20158;-75
2021/11/06 03:44:21;;;;;;;18.38;10.63;;;;;;;3.48;nan;101811.25;5047265;28;20567;-76
2021/11/06 03:46:47;;;;;;;16.52;10.55;;;;;;;3.48;nan;101810.38;5048190;28;20215;-76
2021/11/06 03:49:12;;;;;;;15.35;9.77;;;;;;;3.41;nan;101807.25;5046800;28;20120;-76
2021/11/06 03:51:38;;;;;;;17.52;10.60;;;;;;;3.34;nan;101817.16;5043557;28;20048;-76
2021/11/06 03:54:03;;;;;;;17.98;11.05;;;;;;;3.27;nan;101809.69;5047644;28;20049;-75
2021/11/06 03:56:29;;;;;;;18.00;9.85;;;;;;;3.32;nan;101811.13;5048138;28;20107;-76
2021/11/06 03:58:55;;;;;;;14.93;10.15;;;;;;;3.30;nan;101812.13;5047928;28;20518;-76
2021/11/06 04:01:20;;;;;;;16.83;10.27;;;;;;;3.33;nan;101819.81;5046751;28;20040;-76
2021/11/06 04:03:46;;;;;;;16.48;10.10;;;;;;;3.29;nan;101815.66;5058566;22;20127;-82
2021/11/06 04:06:11;;;;;;;21.58;11.73;;;;;;;3.31;nan;101824.28;5042940;28;20454;-83
2021/11/06 04:08:37;;;;;;;18.00;10.93;;;;;;;3.21;nan;101823.03;5055473;28;20044;-82
2021/11/06 04:11:03;;;;;;;18.15;10.98;;;;;;;3.20;nan;101824.81;5060025;28;20036;-82
2021/11/06 04:13:28;;;;;;;19.23;10.82;;;;;;;3.24;nan;101822.88;5052409;28;20108;-82
2021/11/06 04:15:53;;;;;;;18.08;12.07;;;;;;;3.15;nan;101825.00;5057674;28;20029;-83
2021/11/06 04:18:19;;;;;;;19.75;12.05;;;;;;;3.02;nan;101830.88;5058966;28;20029;-83
2021/11/06 04:20:44;;;;;;;16.98;10.95;;;;;;;2.95;nan;101836.38;5061677;28;20572;-82
2021/11/06 04:23:10;;;;;;;18.08;10.90;;;;;;;2.97;nan;101839.75;5057065;28;20542;-83
2021/11/06 04:25:35;;;;;;;16.48;10.02;;;;;;;3.03;nan;101840.41;5060244;28;20032;-81
2021/11/06 04:28:01;;;;;;;20.83;11.23;;;;;;;3.09;nan;101843.56;5060304;28;20033;-82
2021/11/06 04:30:28;;;;;;;17.88;11.00;;;;;;;3.05;nan;101847.28;5058653;28;20402;-82
2021/11/06 04:32:53;;;;;;;16.83;10.02;;;;;;;3.01;nan;101850.94;5052443;28;20060;-83
2021/11/06 04:35:18;;;;;;;17.17;10.88;;;;;;;2.96;nan;101851.16;5057201;28;20060;-83
2021/11/06 04:37:43;;;;;;;15.40;9.90;;;;;;;2.94;nan;101852.97;5053038;28;20120;-82
2021/11/06 04:40:12;;;;;;;18.55;10.50;;;;;;;3.00;nan;101857.06;5058610;28;20052;-81
2021/11/06 04:42:38;;;;;;;15.90;10.30;;;;;;;3.07;nan;101855.03;5058146;28;20037;-81
2021/11/06 04:45:05;;;;;;;16.27;9.63;;;;;;;3.15;nan;101858.16;5058918;28;20271;-82
2021/11/06 04:47:31;;;;;;;17.77;10.95;;;;;;;3.13;nan;101846.91;5058957;28;20665;-82
2021/11/06 04:49:57;;;;;;;14.45;9.63;;;;;;;3.09;nan;101851.41;5060106;28;20039;-83
2021/11/06 04:52:22;;;;;;;17.52;10.15;;;;;;;3.04;nan;101850.78;5058217;28;20040;-82
2021/11/06 04:54:47;;;;;;;14.23;9.43;;;;;;;3.02;nan;101844.78;5058774;28;20040;-82
2021/11/06 04:57:13;;;;;;;15.70;10.07;;;;;;;2.98;nan;101840.63;5060597;28;20040;-83
2021/11/06 04:59:38;;;;;;;16.60;10.18;;;;;;;2.91;nan;101847.06;5058507;28;20033;-82
2021/11/06 05:02:04;;;;;;;14.77;9.50;;;;;;;2.91;nan;101854.91;5056842;28;20025;-83
2021/11/06 05:04:29;;;;;;;15.15;9.15;;;;;;;2.95;nan;101851.22;5059478;28;20044;-82
2021/11/06 05:06:55;;;;;;;16.27;10.32;;;;;;;2.94;nan;101852.13;5060329;28;20566;-82
2021/11/06 05:09:20;;;;;;;16.55;10.30;;;;;;;2.94;nan;101858.22;5061093;28;20060;-82
2021/11/06 05:11:45;;;;;;;15.38;9.98;;;;;;;2.99;nan;101850.16;5058814;28;20053;-81
2021/11/06 05:14:11;;;;;;;14.95;9.65;;;;;;;3.08;nan;101854.13;5057720;28;20381;-82
2021/11/06 05:16:36;;;;;;;15.07;9.38;;;;;;;3.10;nan;101854.88;5060308;28;20027;-82
2021/11/06 05:19:01;;;;;;;15.10;9.48;;;;;;;3.08;nan;101852.34;5058221;28;20036;-82
2021/11/06 05:21:35;;;;;;;15.43;9.85;;;;;;;3.15;nan;101853.75;5059998;28;20037;-81
2021/11/06 05:24:00;;;;;;;18.02;9.80;;;;;;;3.23;nan;101857.78;5055487;28;20363;-81
2021/11/06 05:26:26;;;;;;;15.10;9.38;;;;;;;3.19;nan;101860.56;5058222;28;20086;-81
2021/11/06 05:28:51;;;;;;;13.80;9.02;;;;;;;3.16;nan;101859.81;5059993;28;20033;-82
2021/11/06 05:31:16;;;;;;;15.73;9.65;;;;;;;3.21;nan;101863.06;5060111;28;20067;-82
2021/11/06 05:33:42;;;;;;;15.15;9.65;;;;;;;3.24;nan;101862.06;5061231;28;20025;-82
2021/11/06 05:36:07;;;;;;;14.05;9.90;;;;;;;3.17;nan;101866.75;5064299;28;20040;-81
2021/11/06 05:38:32;;;;;;;14.85;10.07;;;;;;;3.17;nan;101862.38;5063995;28;20048;-82
2021/11/06 05:40:58;;;;;;;14.15;9.15;;;;;;;3.18;nan;101858.00;5058450;28;20079;-81
2021/11/06 05:43:23;;;;;;;16.65;10.32;;;;;;;3.19;nan;101870.13;5057026;28;20094;-83
2021/11/06 05:45:49;;;;;;;15.57;9.48;;;;;;;3.25;nan;101863.78;5057974;28;20025;-82
2021/11/06 05:48:14;;;;;;;15.32;10.20;;;;;;;3.20;nan;101861.41;5058141;28;20039;-82
2021/11/06 05:50:39;;;;;;;17.65;10.80;;;;;;;3.13;nan;101862.59;5059448;28;20116;-82
2021/11/06 05:53:05;;;;;;;16.20;10.05;;;;;;;3.12;nan;101866.97;5058573;28;20044;-81
2021/11/06 05:55:30;;;;;;;17.98;10.60;;;;;;;3.09;nan;101867.09;5057945;28;20033;-81
2021/11/06 05:57:55;;;;;;;16.38;10.43;;;;;;;3.12;nan;101864.38;5060002;28;20108;-82
2021/11/06 06:00:21;;;;;;;20.55;10.30;;;;;;;3.14;nan;101865.13;5057861;28;20051;-82
2021/11/06 06:02:47;;;;;;;16.88;10.48;;;;;;;3.14;nan;101877.34;5058547;28;20052;-82
2021/11/06 06:05:13;;;;;;;18.10;10.15;;;;;;;3.17;nan;101867.63;5059580;28;20033;-82
2021/11/06 06:07:39;;;;;;;15.80;9.93;;;;;;;3.18;nan;101874.53;5059789;28;20029;-81
2021/11/06 06:10:06;;;;;;;17.77;9.80;;;;;;;3.19;nan;101876.22;5058646;28;20025;-82
2021/11/06 06:12:35;;;;;;;18.48;11.05;;;;;;;3.16;nan;101880.75;5059225;28;20041;-82
2021/11/06 06:15:01;;;;;;;19.27;10.90;;;;;;;3.10;nan;101881.00;5059309;28;20033;-82
2021/11/06 06:17:26;;;;;;;17.25;10.43;;;;;;;3.04;nan;101878.69;5057446;28;20075;-82
2021/11/06 06:19:51;;;;;;;15.55;10.23;;;;;;;3.00;nan;101888.41;5056070;28;20032;-82
2021/11/06 06:22:17;;;;;;;19.35;11.18;;;;;;;3.00;nan;101885.81;5057130;28;20040;-82
2021/11/06 06:24:42;;;;;;;16.83;10.82;;;;;;;3.00;nan;101893.66;5057733;28;20060;-84
2021/11/06 06:27:07;;;;;;;14.70;9.75;;;;;;;3.00;nan;101891.03;5057971;28;20120;-81
2021/11/06 06:29:33;;;;;;;15.95;10.23;;;;;;;3.03;nan;101892.66;5056809;28;20044;-82
2021/11/06 06:31:59;;;;;;;15.68;9.52;;;;;;;2.98;nan;101898.13;5057706;28;20128;-82
2021/11/06 06:34:24;;;;;;;17.40;10.18;;;;;;;3.00;nan;101898.88;5056544;28;20048;-82
2021/11/06 06:36:50;;;;;;;18.98;10.50;;;;;;;3.02;nan;101904.88;5056712;28;20037;-81
2021/11/06 06:39:15;;;;;;;31.83;11.23;;;;;;;3.04;nan;101904.81;5055430;28;20059;-82
2021/11/06 06:41:41;;;;;;;25.35;9.80;;;;;;;3.03;nan;101903.13;5057317;28;20037;-81
2021/11/06 06:44:06;;;;;;;23.63;9.35;;;;;;;2.99;nan;101907.66;5056798;28;20035;-82
2021/11/06 06:46:31;;;;;;;24.98;9.57;;;;;;;2.99;nan;101902.41;5057230;28;20040;-82
2021/11/06 06:48:57;;;;;;;20.27;8.30;;;;;;;2.96;nan;101907.78;5057292;28;20037;-83
2021/11/06 06:51:22;;;;;;;11.57;7.50;;;;;;;2.93;nan;101907.91;5058152;28;20044;-82
2021/11/06 06:53:48;;;;;;;21.88;8.70;;;;;;;2.95;nan;101912.13;5057811;28;20541;-82
2021/11/06 06:56:13;;;;;;;15.20;7.13;;;;;;;2.94;nan;101910.47;5054321;28;20040;-83
2021/11/06 06:58:39;;;;;;;13.77;7.03;;;;;;;2.92;nan;101914.91;5053780;28;20041;-81
2021/11/06 07:01:04;;;;;;;17.25;7.60;;;;;;;2.96;nan;101920.84;5056396;28;20032;-83
2021/11/06 07:03:31;;;;;;;32.35;8.50;;;;;;;2.96;nan;101918.25;5054861;28;20033;-81
2021/11/06 07:05:57;;;;;;;20.33;7.10;;;;;;;2.90;nan;101927.19;5057079;28;20040;-83
2021/11/06 07:08:23;;;;;;;8.73;6.10;;;;;;;2.88;nan;101930.78;5054695;28;20033;-82
2021/11/06 07:10:49;;;;;;;13.30;6.47;;;;;;;2.97;nan;101933.00;5057449;28;20029;-83
2021/11/06 07:13:19;;;;;;;9.02;5.93;;;;;;;3.03;nan;101926.63;5057204;28;20060;-83
2021/11/06 07:15:45;;;;;;;9.13;6.10;;;;;;;3.11;nan;101933.22;5052151;28;20040;-82
2021/11/06 07:18:10;;;;;;;16.88;6.07;;;;;;;3.16;nan;101938.25;5050063;28;20136;-83
2021/11/06 07:20:35;;;;;;;9.35;6.30;;;;;;;3.12;nan;101942.78;5055399;28;20039;-83
2021/11/06 07:23:01;;;;;;;10.93;6.65;;;;;;;3.21;nan;101941.50;5056089;28;20186;-82
2021/11/06 07:25:26;;;;;;;19.15;7.50;;;;;;;3.18;nan;101941.63;5043473;28;20116;-80
2021/11/06 07:27:52;;;;;;;11.82;6.38;;;;;;;3.06;nan;101950.88;5055765;28;20079;-84
2021/11/06 07:30:17;;;;;;;;;;;;;;;3.14;nan;101956.59;5055124;28;20067;-84
2021/11/06 07:32:43;;;;;;;9.50;6.47;;;;;;;3.13;nan;101949.69;5052760;28;19916;-83
2021/11/06 07:35:08;;;;;;;10.27;6.53;;;;;;;3.26;nan;101946.50;5053572;28;20147;-84
2021/11/06 07:37:34;;;;;;;10.70;6.97;;;;;;;3.46;nan;101951.69;5055862;28;20032;-83
2021/11/06 07:40:00;;;;;;;10.75;6.20;;;;;;;3.60;nan;101964.97;5045598;28;20089;-83
2021/11/06 07:42:25;;;;;;;8.63;6.15;;;;;;;3.63;nan;101957.91;5053388;28;20045;-83
2021/11/06 07:44:51;;;;;;;8.60;6.05;;;;;;;3.84;nan;101962.13;5058124;28;20039;-84
2021/11/06 07:47:16;;;;;;;7.18;4.93;;;;;;;4.00;nan;101959.59;5058270;28;20041;-84
2021/11/06 07:49:42;;;;;;;8.45;6.35;;;;;;;4.09;nan;101959.16;5058600;28;20570;-84
2021/11/06 07:52:07;;;;;;;8.45;6.10;;;;;;;4.16;nan;101970.19;5058729;28;20045;-84
2021/11/06 07:54:32;;;;;;;8.32;6.13;;;;;;;4.31;nan;101955.50;5054750;28;20040;-84
2021/11/06 07:56:58;;;;;;;8.55;6.25;;;;;;;4.43;nan;101953.13;5054795;28;20041;-84
2021/11/06 07:59:23;;;;;;;10.05;6.95;;;;;;;4.44;nan;101952.19;5056834;28;20026;-84
2021/11/06 08:01:49;;;;;;;10.75;7.55;;;;;;;4.56;nan;101950.72;5051846;28;20036;-82
2021/11/06 08:04:14;;;;;;;;;;;;;;;4.69;nan;101961.41;5057502;28;20040;-83
2021/11/06 08:06:40;;;;;;;11.03;7.33;;;;;;;4.67;nan;101955.41;5060474;28;19948;-83
2021/11/06 08:09:06;;;;;;;9.63;6.22;;;;;;;4.72;nan;101961.28;5057359;28;20490;-83
2021/11/06 08:11:32;;;;;;;10.07;7.32;;;;;;;4.93;nan;101958.47;5052573;28;20498;-83
2021/11/06 08:13:58;;;;;;;11.70;8.00;;;;;;;4.96;nan;101963.53;5059257;28;20060;-84
2021/11/06 08:16:23;;;;;;;;;;;;;;;4.92;nan;101967.25;5061180;28;20044;-83
2021/11/06 08:18:50;;;;;;;11.65;7.75;;;;;;;4.89;nan;101973.50;5064093;28;19917;-83
2021/11/06 08:21:16;;;;;;;11.80;7.07;;;;;;;5.01;nan;101966.78;5070192;28;20310;-83
2021/11/06 08:23:42;;;;;;;12.18;7.82;;;;;;;5.13;nan;101971.38;5065531;28;20086;-82
2021/11/06 08:26:07;;;;;;;;;;;;;;;5.07;nan;101976.94;5059267;28;20037;-83
2021/11/06 08:28:33;;;;;;;10.03;7.60;;;;;;;5.02;nan;101978.97;5059492;28;19917;-83
2021/11/06 08:30:59;;;;;;;12.93;7.55;;;;;;;5.16;nan;101980.84;5060671;28;20044;-83
2021/11/06 08:33:24;;;;;;;11.50;7.90;;;;;;;5.20;nan;101975.38;5060415;28;20406;-83
2021/11/06 08:35:50;;;;;;;8.90;7.00;;;;;;;5.20;nan;101987.66;5057175;28;20948;-83
2021/11/06 08:38:16;;;;;;;10.60;7.35;;;;;;;5.22;nan;101985.75;5059796;28;20112;-83
2021/11/06 08:40:42;;;;;;;12.45;8.20;;;;;;;5.28;nan;101988.91;5060367;28;20074;-83
2021/11/06 08:43:07;;;;;;;8.05;6.57;;;;;;;5.28;nan;101991.53;5058724;28;20389;-82
2021/11/06 08:45:33;;;;;;;11.10;7.40;;;;;;;5.44;nan;101991.56;5059072;28;20033;-83
2021/11/06 08:47:59;;;;;;;13.38;8.55;;;;;;;5.45;nan;101987.16;5058428;28;20025;-83
2021/11/06 08:50:25;;;;;;;;;;;;;;;5.49;nan;101996.56;5058556;28;20044;-82
2021/11/06 08:52:53;;;;;;;14.73;8.40;;;;;;;5.42;nan;101989.97;5059294;28;19913;-83
2021/11/06 08:55:19;;;;;;;13.27;8.38;;;;;;;5.42;nan;101985.56;5060216;28;20032;-83
2021/11/06 08:57:44;;;;;;;10.30;7.85;;;;;;;5.46;nan;101989.72;5057809;28;20408;-83
2021/11/06 09:00:35;;;;;;;12.07;8.10;;;;;;;5.50;nan;101995.63;5059824;28;20401;-83
2021/11/06 09:03:14;;;;;;;14.55;9.60;;;;;;;5.51;nan;101984.22;5058645;28;20037;-83
2021/11/06 09:05:41;;;;;;;15.93;9.95;;;;;;;5.60;nan;101988.09;5059943;28;20025;-83
2021/11/06 09:08:08;;;;;;;19.40;9.60;;;;;;;5.65;nan;101986.94;5057872;28;20029;-83
2021/11/06 09:10:34;;;;;;;15.43;9.63;;;;;;;5.70;nan;101989.31;5054452;28;20036;-83
2021/11/06 09:13:00;;;;;;;14.05;8.55;;;;;;;5.75;nan;101997.78;5058149;28;20039;-83
2021/11/06 09:15:25;;;;;;;;;;;;;;;5.75;nan;101995.16;5058227;28;20065;-83
2021/11/06 09:17:51;;;;;;;15.03;9.83;;;;;;;5.86;nan;101989.31;5056160;28;19920;-83
2021/11/06 09:20:17;;;;;;;19.42;11.15;;;;;;;5.91;nan;101990.75;5053185;28;20044;-84
2021/11/06 09:22:43;;;;;;;21.75;11.73;;;;;;;5.84;nan;101988.53;5055723;28;20212;-83
2021/11/06 09:25:09;;;;;;;14.90;10.23;;;;;;;5.87;nan;101977.88;5056773;28;20410;-84
2021/11/06 09:27:35;;;;;;;11.85;7.85;;;;;;;5.97;nan;101991.38;5055977;28;20432;-83
2021/11/06 09:30:03;;;;;;;11.35;7.90;;;;;;;6.02;nan;101995.44;5050608;28;20403;-83
2021/11/06 09:32:29;;;;;;;13.15;8.27;;;;;;;6.08;nan;101989.00;5053546;28;20394;-83
2021/11/06 09:34:54;;;;;;;16.25;9.65;;;;;;;6.02;nan;101987.53;5056941;28;20100;-83
2021/11/06 09:37:20;;;;;;;19.45;10.80;;;;;;;6.07;nan;101998.63;5055213;28;20037;-83
2021/11/06 09:39:45;;;;;;;25.63;12.55;;;;;;;6.13;nan;101995.69;5053328;28;20033;-84
2021/11/06 09:42:10;;;;;;;27.30;13.60;;;;;;;5.99;nan;101992.97;5055768;28;20057;-84
2021/11/06 09:44:36;;;;;;;22.70;12.35;;;;;;;5.85;nan;102000.75;5059486;28;20047;-84
2021/11/06 09:47:07;;;;;;;;;;;;;;;5.91;nan;102005.63;5053992;28;20090;-84
2021/11/06 09:49:33;;;;;;;;;;;;;;;6.10;nan;102005.50;5054022;28;19917;-84
2021/11/06 09:51:58;;;;;;;;;;;;;;;6.01;nan;101998.16;5045716;28;20002;-84
2021/11/06 09:54:23;;;;;;;;;;;;;;;6.07;nan;102003.03;5057377;28;20389;-83
2021/11/06 09:56:48;;;;;;;;;;;;;;;6.19;nan;101996.25;5057894;28;20381;-84
2021/11/06 09:59:14;;;;;;;;;;;;;;;6.24;nan;102005.56;5056058;28;19928;-84
2021/11/06 10:01:39;;;;;;;;;;;;;;;6.16;nan;101998.13;5055187;28;19935;-84
2021/11/06 10:04:07;;;;;;;;;;;;;;;6.30;nan;101996.50;5055102;28;19985;-83
2021/11/06 10:06:33;;;;;;;;;;;;;;;6.36;nan;101997.00;5053687;28;19916;-83
2021/11/06 10:08:58;;;;;;;25.95;14.07;;;;;;;6.30;nan;101996.50;5057885;28;19924;-84
2021/11/06 10:11:29;;;;;;;27.63;14.95;;;;;;;6.41;nan;101999.34;5057773;28;20065;-84
2021/11/06 10:14:02;;;;;;;30.80;16.10;;;;;;;6.58;nan;101999.22;5055965;28;20075;-83
2021/11/06 10:16:41;;;;;;;28.15;15.75;;;;;;;6.71;nan;102001.13;5054058;28;20053;-83
2021/11/06 10:19:14;;;;;;;27.67;15.85;;;;;;;6.74;nan;101999.16;5055636;28;20041;-84
2021/11/06 10:21:44;;;;;;;27.42;16.58;;;;;;;6.76;nan;101999.91;5048399;28;20029;-85
2021/11/06 10:24:10;;;;;;;27.88;16.80;;;;;;;6.74;nan;101993.88;5053956;28;20040;-84
2021/11/06 10:26:35;;;;;;;32.75;18.48;;;;;;;6.75;nan;101989.50;5048440;28;20386;-83
2021/11/06 10:29:09;;;;;;;32.85;18.95;;;;;;;6.73;nan;101989.59;5057754;28;20106;-84
2021/11/06 10:31:57;;;;;;;29.33;17.70;;;;;;;6.81;nan;101994.38;5048274;28;20585;-84
2021/11/06 10:34:25;;;;;;;27.60;17.58;;;;;;;6.77;nan;101995.53;5046690;28;20040;-85
2021/11/06 10:37:10;;;;;;;28.70;17.50;;;;;;;6.75;nan;101982.47;5058107;28;20159;-85
2021/11/06 10:39:36;;;;;;;;;;;;;;;6.87;nan;101994.03;5060502;28;20041;-84
2021/11/06 10:42:11;;;;;;;37.67;19.63;;;;;;;6.97;nan;101992.53;5058515;28;19923;-84
2021/11/06 10:44:36;;;;;;;32.00;18.98;;;;;;;6.91;nan;101981.53;5049634;28;20054;-84
2021/11/06 10:47:02;;;;;;;33.08;20.50;;;;;;;6.77;nan;101980.59;5060206;28;20510;-83
2021/11/06 10:49:39;;;;;;;35.50;19.83;;;;;;;6.87;nan;101978.25;5058169;28;20043;-84
2021/11/06 10:52:12;;;;;;;;;;;;;;;6.90;nan;101974.59;5053706;28;20036;-84
2021/11/06 10:55:03;;;;;;;31.38;17.75;;;;;;;6.91;nan;101965.75;5058599;28;19923;-83
2021/11/06 10:57:30;;;;;;;34.90;20.27;;;;;;;7.06;nan;101959.56;5059586;28;20037;-84
2021/11/06 11:00:17;;;;;;;34.92;19.80;;;;;;;7.14;nan;101956.47;5058997;28;20457;-85
2021/11/06 11:02:43;;;;;;;31.65;19.98;;;;;;;7.12;nan;101945.19;5063786;28;20087;-83
2021/11/06 11:05:44;;;;;;;34.83;19.77;;;;;;;7.36;nan;101955.97;5062715;28;20029;-84
2021/11/06 11:08:12;;;;;;;32.42;20.10;;;;;;;7.24;nan;101954.94;5000543;28;20306;-82
2021/11/06 11:10:39;;;;;;;30.50;18.70;;;;;;;7.25;nan;101951.41;5046335;28;20025;-83
2021/11/06 11:13:20;;;;;;;33.85;20.33;;;;;;;7.31;nan;101939.63;5059000;28;20039;-84
2021/11/06 11:15:51;;;;;;;31.13;20.27;;;;;;;7.31;nan;101943.09;5059456;28;20502;-84
2021/11/06 11:18:33;;;;;;;33.17;20.55;;;;;;;7.54;nan;101949.56;5053766;28;20068;-83
2021/11/06 11:21:11;;;;;;;30.35;19.65;;;;;;;7.62;nan;101946.44;5062295;28;20056;-84
2021/11/06 11:23:38;;;;;;;32.05;19.13;;;;;;;7.77;nan;101932.31;5057025;28;20167;-84
2021/11/06 11:26:03;;;;;;;31.45;19.10;;;;;;;7.80;nan;101923.38;5063518;28;20114;-82
2021/11/06 11:28:29;;;;;;;30.45;20.83;;;;;;;7.92;nan;101924.34;5062055;28;20412;-84
2021/11/06 11:30:54;;;;;;;;;;;;;;;7.95;nan;101919.72;5062136;28;20029;-83
2021/11/06 11:33:20;;;;;;;38.03;21.83;;;;;;;7.99;nan;101915.94;5063105;28;19917;-82
2021/11/06 11:35:46;;;;;;;;;;;;;;;8.05;nan;101918.16;5062290;28;20101;-83
2021/11/06 11:38:13;;;;;;;33.30;20.47;;;;;;;7.86;nan;101907.16;5058510;28;20383;-83